createdAt,value
2023-03-23T00:04:39.978Z,0.60
2023-03-23T00:10:06.012Z,0.68
2023-03-23T00:15:33.003Z,0.47
2023-03-23T00:20:59.004Z,0.47
2023-03-23T00:26:23.008Z,0.60
2023-03-23T00:31:55.023Z,0.57
2023-03-23T00:37:29.003Z,0.40
2023-03-23T00:42:54.029Z,0.50
2023-03-23T00:48:22.009Z,0.55
2023-03-23T00:53:48.071Z,0.60
2023-03-23T00:59:13.090Z,0.50
2023-03-23T01:04:44.045Z,0.50
2023-03-23T01:10:08.998Z,0.40
2023-03-23T01:15:34.041Z,0.50
2023-03-23T01:21:01.020Z,0.57
2023-03-23T01:26:30.021Z,0.45
2023-03-23T01:31:54.066Z,0.38
2023-03-23T01:37:34.066Z,0.52
2023-03-23T01:42:59.032Z,0.43
2023-03-23T01:48:31.046Z,0.38
2023-03-23T01:54:04.060Z,0.47
2023-03-23T01:59:29.068Z,0.47
2023-03-23T02:05:13.060Z,0.50
2023-03-23T02:10:41.085Z,0.30
2023-03-23T02:16:15.091Z,0.45
2023-03-23T02:22:12.072Z,0.50
2023-03-23T02:28:06.067Z,0.50
2023-03-23T02:33:53.064Z,0.50
2023-03-23T02:39:23.093Z,0.50
2023-03-23T02:44:51.074Z,0.52
2023-03-23T02:50:22.066Z,0.55
2023-03-23T02:55:50.093Z,0.60
2023-03-23T03:01:47.191Z,0.50
2023-03-23T03:07:35.131Z,0.50
2023-03-23T03:13:07.069Z,0.55
2023-03-23T03:18:37.076Z,0.52
2023-03-23T03:24:09.084Z,0.60
2023-03-23T03:29:37.087Z,0.70
2023-03-23T03:35:02.103Z,0.60
2023-03-23T03:40:34.147Z,0.60
2023-03-23T03:45:59.120Z,0.60
2023-03-23T03:51:24.097Z,0.70
2023-03-23T03:56:53.128Z,0.50
2023-03-23T04:02:28.183Z,0.60
2023-03-23T04:08:09.283Z,0.60
2023-03-23T04:13:38.142Z,0.50
2023-03-23T04:19:13.013Z,0.50
2023-03-23T04:24:56.548Z,0.40
2023-03-23T04:30:26.158Z,0.50
2023-03-23T04:36:05.181Z,0.50
2023-03-23T04:41:32.127Z,0.50
2023-03-23T04:47:10.153Z,0.50
2023-03-23T04:52:49.110Z,0.50
2023-03-23T04:58:14.122Z,0.50
2023-03-23T05:04:04.127Z,0.50
2023-03-23T05:09:30.166Z,0.40
2023-03-23T05:14:58.199Z,0.50
2023-03-23T05:20:29.171Z,0.50
2023-03-23T05:25:57.183Z,0.50
2023-03-23T05:31:22.168Z,0.40
2023-03-23T05:36:51.141Z,0.60
2023-03-23T05:42:19.177Z,0.50
2023-03-23T05:48:07.150Z,0.50
2023-03-23T05:53:35.167Z,0.52
2023-03-23T05:59:01.198Z,0.50
2023-03-23T06:04:27.210Z,0.50
2023-03-23T06:10:09.221Z,0.40
2023-03-23T06:15:39.225Z,0.50
2023-03-23T06:21:03.254Z,0.52
2023-03-23T06:26:58.193Z,0.40
2023-03-23T06:32:23.197Z,0.50
2023-03-23T06:37:49.227Z,0.50
2023-03-23T06:43:24.234Z,0.60
2023-03-23T06:49:06.190Z,0.50
2023-03-23T06:54:41.387Z,0.50
2023-03-23T07:00:09.501Z,0.55
2023-03-23T07:05:37.230Z,0.50
2023-03-23T07:11:03.224Z,0.45
2023-03-23T07:16:31.223Z,0.60
2023-03-23T07:21:56.232Z,0.50
2023-03-23T07:27:23.230Z,0.50
2023-03-23T07:32:53.234Z,0.60
2023-03-23T07:38:19.253Z,0.60
2023-03-23T07:43:44.233Z,0.57
2023-03-23T07:49:17.284Z,0.60
2023-03-23T07:54:52.347Z,0.40
2023-03-23T08:00:49.260Z,0.52
2023-03-23T08:06:17.267Z,0.52
2023-03-23T08:12:02.253Z,0.50
2023-03-23T08:17:30.265Z,0.50
2023-03-23T08:23:16.237Z,0.50
2023-03-23T08:29:11.250Z,0.70
2023-03-23T08:34:51.280Z,0.60
2023-03-23T08:40:55.289Z,0.60
2023-03-23T08:46:38.273Z,0.50
2023-03-23T08:52:26.271Z,0.50
2023-03-23T08:58:14.295Z,0.63
2023-03-23T09:03:51.286Z,0.60
2023-03-23T09:09:34.293Z,0.60
2023-03-23T09:15:01.305Z,0.68
2023-03-23T09:20:28.298Z,0.70
2023-03-23T09:25:54.334Z,0.70
2023-03-23T09:31:22.289Z,0.60
2023-03-23T09:36:47.274Z,0.50
2023-03-23T09:42:32.310Z,0.60
2023-03-23T09:48:11.308Z,0.60
2023-03-23T09:53:43.329Z,0.40
2023-03-23T09:59:13.330Z,0.33
2023-03-23T10:04:47.364Z,0.55
2023-03-23T10:10:14.306Z,0.40
2023-03-23T10:15:43.625Z,0.40
2023-03-23T10:21:13.427Z,0.50
2023-03-23T10:26:55.321Z,0.30
2023-03-23T10:32:30.329Z,0.40
2023-03-23T10:38:02.384Z,0.30
2023-03-23T10:43:26.321Z,0.40
2023-03-23T10:48:51.342Z,0.22
2023-03-23T10:54:20.347Z,0.20
2023-03-23T10:59:45.388Z,0.30
2023-03-23T11:05:20.291Z,0.30
2023-03-23T11:10:50.346Z,0.60
2023-03-23T11:16:15.354Z,0.35
2023-03-23T11:21:42.385Z,0.30
2023-03-23T11:27:14.373Z,0.10
2023-03-23T11:32:40.355Z,0.20
2023-03-23T11:38:09.364Z,0.30
2023-03-23T11:43:38.419Z,0.30
2023-03-23T11:49:25.100Z,0.20
2023-03-23T11:54:57.352Z,0.20
2023-03-23T12:00:33.389Z,0.25
2023-03-23T12:06:03.396Z,0.30
2023-03-23T12:11:36.382Z,0.30
2023-03-23T12:17:13.412Z,0.30
2023-03-23T12:22:54.387Z,0.30
2023-03-23T12:28:30.408Z,0.30
2023-03-23T12:34:08.383Z,0.25
2023-03-23T12:40:01.438Z,0.40
2023-03-23T12:45:38.415Z,0.20
2023-03-23T12:51:22.423Z,0.30
2023-03-23T12:56:53.413Z,0.32
2023-03-23T13:02:27.413Z,0.30
2023-03-23T13:08:01.417Z,0.20
2023-03-23T13:13:31.842Z,0.22
2023-03-23T13:19:04.444Z,0.25
2023-03-23T13:24:35.430Z,0.40
2023-03-23T13:30:01.455Z,0.20
2023-03-23T13:35:29.456Z,0.35
2023-03-23T13:41:01.467Z,0.20
2023-03-23T13:46:39.469Z,0.17
2023-03-23T13:52:16.437Z,0.30
2023-03-23T13:57:59.453Z,0.30
2023-03-23T14:03:32.464Z,0.30
2023-03-23T14:09:01.459Z,0.30
2023-03-23T14:14:38.461Z,0.20
2023-03-23T14:20:05.492Z,0.30
2023-03-23T14:25:34.492Z,0.30
2023-03-23T14:31:05.465Z,0.30
2023-03-23T14:36:29.532Z,0.30
2023-03-23T14:41:54.478Z,0.17
2023-03-23T14:47:27.479Z,0.20
2023-03-23T14:52:52.474Z,0.30
2023-03-23T14:58:24.513Z,0.20
2023-03-23T15:03:54.482Z,0.20
2023-03-23T15:09:22.463Z,0.20
2023-03-23T15:14:55.480Z,0.30
2023-03-23T15:20:37.523Z,0.20
2023-03-23T15:26:04.527Z,0.30
2023-03-23T15:31:28.527Z,0.30
2023-03-23T15:36:56.558Z,0.40
2023-03-23T15:42:21.517Z,0.30
2023-03-23T15:47:48.523Z,0.30
2023-03-23T15:53:39.517Z,0.30
2023-03-23T15:59:06.525Z,0.30
2023-03-23T16:04:35.542Z,0.20
2023-03-23T16:10:03.580Z,0.40
2023-03-23T16:15:28.517Z,0.22
2023-03-23T16:20:53.552Z,0.32
2023-03-23T16:26:21.527Z,0.25
2023-03-23T16:31:46.553Z,0.20
2023-03-23T16:37:11.570Z,0.20
2023-03-23T16:42:39.560Z,0.32
2023-03-23T16:48:08.596Z,0.20
2023-03-23T16:53:34.550Z,0.30
2023-03-23T16:59:01.579Z,0.30
2023-03-23T17:04:32.544Z,0.30
2023-03-23T17:09:57.571Z,0.40
2023-03-23T17:15:26.567Z,0.40
2023-03-23T17:20:52.585Z,0.30
2023-03-23T17:26:17.564Z,0.70
2023-03-23T17:31:44.584Z,0.50
2023-03-23T17:37:10.610Z,0.40
2023-03-23T17:42:34.661Z,0.32
2023-03-23T17:48:09.686Z,0.40
2023-03-23T17:53:35.613Z,0.40
2023-03-23T17:59:00.618Z,0.50
2023-03-23T18:04:29.611Z,0.50
2023-03-23T18:09:53.595Z,0.75
2023-03-23T18:15:20.618Z,0.80
2023-03-23T18:20:48.645Z,0.55
2023-03-23T18:26:15.606Z,0.85
2023-03-23T18:31:46.630Z,0.70
2023-03-23T18:37:14.615Z,0.70
2023-03-23T18:42:38.629Z,0.60
2023-03-23T18:48:03.692Z,0.60
2023-03-23T18:53:32.647Z,0.60
2023-03-23T18:58:57.651Z,0.80
2023-03-23T19:04:22.626Z,0.70
2023-03-23T19:09:51.634Z,0.70
2023-03-23T19:15:15.651Z,1.00
2023-03-23T19:21:10.671Z,0.55
2023-03-23T19:26:37.834Z,0.70
2023-03-23T19:32:03.660Z,0.65
2023-03-23T19:37:28.701Z,0.50
2023-03-23T19:42:57.449Z,0.60
2023-03-23T19:48:23.018Z,0.70
2023-03-23T19:53:47.689Z,0.50
2023-03-23T19:59:17.670Z,0.50
2023-03-23T20:04:45.529Z,0.50
2023-03-23T20:10:10.729Z,0.40
2023-03-23T20:15:39.680Z,0.60
2023-03-23T20:21:03.850Z,0.55
2023-03-23T20:26:31.668Z,0.45
2023-03-23T20:31:59.694Z,0.50
2023-03-23T20:37:28.237Z,0.50
2023-03-23T20:42:54.770Z,0.50
2023-03-23T20:48:29.654Z,0.63
2023-03-23T20:53:55.693Z,0.68
2023-03-23T20:59:19.716Z,0.50
2023-03-23T21:04:48.681Z,0.63
2023-03-23T21:10:13.740Z,0.50
2023-03-23T21:15:38.719Z,0.50
2023-03-23T21:21:07.764Z,0.52
2023-03-23T21:26:37.707Z,0.60
2023-03-23T21:32:08.420Z,0.60
2023-03-23T21:37:36.884Z,0.53
2023-03-23T21:43:01.710Z,0.50
2023-03-23T21:48:28.794Z,0.50
2023-03-23T21:53:56.716Z,0.60
2023-03-23T21:59:21.714Z,0.77
2023-03-23T22:04:46.728Z,0.60
2023-03-23T22:10:18.747Z,0.70
2023-03-23T22:15:43.747Z,0.73
2023-03-23T22:21:08.916Z,0.63
2023-03-23T22:26:37.725Z,0.85
2023-03-23T22:32:03.742Z,0.70
2023-03-23T22:37:28.756Z,0.80
2023-03-23T22:42:57.004Z,0.80
2023-03-23T22:48:20.773Z,0.57
2023-03-23T22:53:45.774Z,0.70
2023-03-23T22:59:13.794Z,0.60
2023-03-23T23:04:39.768Z,0.80
2023-03-23T23:09:57.797Z,1.00
2023-03-23T23:15:28.771Z,0.93
2023-03-23T23:21:00.174Z,0.93
2023-03-23T23:26:24.799Z,0.80
2023-03-23T23:31:52.826Z,0.90
2023-03-23T23:37:18.775Z,0.80
2023-03-23T23:42:44.812Z,1.00
2023-03-23T23:48:12.784Z,0.77
2023-03-23T23:53:39.013Z,0.80
2023-03-23T23:59:03.825Z,0.90
